Fullerton, Nebraska
Current Conditions -  °F | °C
As of 10:55 PM on Monday 22 Dec 2014 (Local Time) from KBVN Reporting Station
Overcast Overcast  
Wind Chill: 24°   Ceiling: 1500
Heat Index: 34°   Visibility: 10mi
Dew Point: 29°   Wind: 16mph
Humidity: 81%   Direction: 330°NNW
Pressure: 29.51"   Gusts: 22mph
Location:  41.36°N, 97.97°W
Report Text: KBVN 230455Z AUTO 33014G19KT 10SM OVC015 01/M02 A2951 RMK AO2 T00101019
Loading
Personal Weather Stations






























Interactive Weather Map New forecast layout! Learn more

10-Day Weather Forecast

Advertisements
Track Severe Weather on mobile